WEM weather

CLOSED RAF West Malling
West Malling, England, United Kingdom

Public forecast

Using degrees Celsius for public forecast. Weather courtesy of forecast.io.

METAR (pilot weather report)

Closest report is London Biggin Hill Airport, 14.3 nm (26.4 km) WNW. Retrieved 2018/12/19 15:20 UTC (31 minutes ago):

EGKB 191520Z 18009KT 9999 FEW025 07/06 Q1005

TAF (pilot weather forecast)

Forecast is more than 12 hours old.

Closest forecast is London Biggin Hill Airport, 14.3 nm (26.4 km) WNW. Retrieved 2018/10/15 23:27 UTC (2 months ago):

TAF TAF EGKB 152321Z 1523/1622 CNL